createdAt,value
2023-04-17T00:01:40.851Z,21.40
2023-04-17T00:04:11.435Z,21.05
2023-04-17T00:06:45.012Z,20.95
2023-04-17T00:09:12.721Z,23.25
2023-04-17T00:11:41.711Z,24.35
2023-04-17T00:14:08.444Z,26.73
2023-04-17T00:16:35.327Z,26.65
2023-04-17T00:19:02.137Z,24.25
2023-04-17T00:21:29.912Z,22.63
2023-04-17T00:23:56.811Z,22.35
2023-04-17T00:26:23.648Z,21.50
2023-04-17T00:28:51.745Z,22.42
2023-04-17T00:31:18.664Z,21.60
2023-04-17T00:33:46.422Z,24.08
2023-04-17T00:36:13.824Z,23.05
2023-04-17T00:38:40.789Z,23.73
2023-04-17T00:41:07.531Z,23.33
2023-04-17T00:43:34.372Z,23.52
2023-04-17T00:46:09.637Z,24.27
2023-04-17T00:48:37.554Z,25.48
2023-04-17T00:51:04.446Z,24.67
2023-04-17T00:53:36.030Z,25.58
2023-04-17T00:56:11.915Z,26.45
2023-04-17T00:58:39.958Z,23.88
2023-04-17T01:01:06.934Z,22.48
2023-04-17T01:03:34.211Z,24.10
2023-04-17T01:06:02.032Z,23.63
2023-04-17T01:08:33.273Z,24.20
2023-04-17T01:11:00.098Z,23.38
2023-04-17T01:13:27.177Z,25.45
2023-04-17T01:15:54.038Z,24.08
2023-04-17T01:18:20.891Z,22.88
2023-04-17T01:20:47.686Z,23.80
2023-04-17T01:23:14.654Z,24.45
2023-04-17T01:25:41.649Z,22.90
2023-04-17T01:28:08.485Z,24.45
2023-04-17T01:30:35.795Z,24.67
2023-04-17T01:33:02.718Z,23.45
2023-04-17T01:35:29.640Z,23.55
2023-04-17T01:37:56.476Z,23.63
2023-04-17T01:40:23.372Z,23.50
2023-04-17T01:42:50.209Z,23.90
2023-04-17T01:45:16.968Z,23.77
2023-04-17T01:47:43.839Z,23.58
2023-04-17T01:50:11.196Z,23.83
2023-04-17T01:52:39.686Z,23.75
2023-04-17T01:55:07.184Z,21.33
2023-04-17T01:57:34.137Z,22.35
2023-04-17T02:00:00.877Z,22.85
2023-04-17T02:02:27.821Z,23.48
2023-04-17T02:04:54.666Z,22.45
2023-04-17T02:07:21.689Z,23.10
2023-04-17T02:09:48.599Z,22.85
2023-04-17T02:12:15.963Z,22.88
2023-04-17T02:14:42.772Z,22.13
2023-04-17T02:17:09.572Z,22.38
2023-04-17T02:19:36.425Z,21.85
2023-04-17T02:22:03.278Z,21.70
2023-04-17T02:24:30.386Z,22.40
2023-04-17T02:26:57.480Z,22.00
2023-04-17T02:29:24.271Z,21.42
2023-04-17T02:31:51.322Z,21.55
2023-04-17T02:34:18.148Z,21.55
2023-04-17T02:36:44.890Z,23.10
2023-04-17T02:39:11.822Z,23.27
2023-04-17T02:41:38.887Z,23.45
2023-04-17T02:44:05.952Z,23.60
2023-04-17T02:46:32.774Z,21.40
2023-04-17T02:48:59.576Z,23.13
2023-04-17T02:51:26.693Z,21.30
2023-04-17T02:53:53.532Z,22.33
2023-04-17T02:56:20.308Z,23.08
2023-04-17T02:58:47.175Z,22.02
2023-04-17T03:01:14.014Z,21.48
2023-04-17T03:03:41.386Z,22.60
2023-04-17T03:06:09.817Z,21.10
2023-04-17T03:08:38.567Z,21.58
2023-04-17T03:11:06.261Z,24.30
2023-04-17T03:13:36.365Z,23.13
2023-04-17T03:16:04.656Z,22.50
2023-04-17T03:18:31.997Z,21.80
2023-04-17T03:23:41.585Z,24.33
2023-04-17T03:26:08.522Z,22.55
2023-04-17T03:28:35.399Z,23.23
2023-04-17T03:31:02.183Z,22.10
2023-04-17T03:33:28.964Z,22.08
2023-04-17T03:35:55.748Z,22.63
2023-04-17T03:38:22.775Z,21.83
2023-04-17T03:40:49.686Z,21.95
2023-04-17T03:46:53.899Z,22.50
2023-04-17T03:49:20.849Z,21.23
2023-04-17T03:51:47.601Z,21.40
2023-04-17T03:54:14.370Z,23.70
2023-04-17T03:56:41.103Z,22.63
2023-04-17T03:59:07.819Z,23.25
2023-04-17T04:01:38.470Z,22.70
2023-04-17T04:04:05.512Z,22.65
2023-04-17T04:06:32.316Z,22.83
2023-04-17T04:08:59.045Z,22.98
2023-04-17T04:11:25.927Z,22.80
2023-04-17T04:13:52.758Z,23.73
2023-04-17T04:16:19.616Z,24.15
2023-04-17T04:18:46.481Z,23.27
2023-04-17T04:21:13.282Z,23.25
2023-04-17T04:23:41.348Z,24.88
2023-04-17T04:26:08.273Z,22.98
2023-04-17T04:28:35.243Z,22.75
2023-04-17T04:31:02.906Z,22.83
2023-04-17T04:33:30.216Z,23.50
2023-04-17T04:36:01.068Z,23.30
2023-04-17T04:38:32.733Z,23.65
2023-04-17T04:41:01.538Z,25.25
2023-04-17T04:43:32.167Z,24.15
2023-04-17T04:46:46.235Z,26.02
2023-04-17T04:49:13.612Z,23.67
2023-04-17T04:51:40.624Z,23.58
2023-04-17T04:54:08.109Z,24.02
2023-04-17T04:56:34.871Z,23.52
2023-04-17T04:59:01.645Z,23.65
2023-04-17T05:01:29.836Z,21.42
2023-04-17T05:03:56.874Z,24.70
2023-04-17T05:06:23.788Z,24.20
2023-04-17T05:08:51.326Z,24.92
2023-04-17T05:11:18.277Z,22.23
2023-04-17T05:13:45.285Z,23.27
2023-04-17T05:16:12.066Z,24.10
2023-04-17T05:18:38.853Z,26.17
2023-04-17T05:21:05.746Z,24.40
2023-04-17T05:23:32.501Z,23.42
2023-04-17T05:25:59.222Z,22.88
2023-04-17T05:28:46.528Z,24.60
2023-04-17T05:31:13.943Z,24.20
2023-04-17T05:33:40.788Z,25.92
2023-04-17T05:36:08.685Z,24.45
2023-04-17T05:38:35.488Z,24.23
2023-04-17T05:41:02.282Z,24.90
2023-04-17T05:43:29.148Z,25.45
2023-04-17T05:45:56.215Z,24.00
2023-04-17T05:48:23.879Z,25.25
2023-04-17T05:50:50.791Z,24.23
2023-04-17T05:53:17.652Z,23.20
2023-04-17T05:55:44.413Z,23.70
2023-04-17T06:00:43.902Z,24.65
2023-04-17T06:03:11.228Z,23.98
2023-04-17T06:05:38.212Z,23.40
2023-04-17T06:08:05.122Z,25.08
2023-04-17T06:10:33.570Z,24.70
2023-04-17T06:13:00.655Z,25.52
2023-04-17T06:15:27.562Z,25.45
2023-04-17T06:17:54.404Z,24.92
2023-04-17T06:20:21.348Z,23.42
2023-04-17T06:22:48.123Z,24.50
2023-04-17T06:25:14.933Z,25.00
2023-04-17T06:27:41.707Z,22.85
2023-04-17T06:30:09.010Z,21.90
2023-04-17T06:32:35.966Z,20.75
2023-04-17T06:35:02.871Z,20.20
2023-04-17T06:37:29.672Z,19.55
2023-04-17T06:39:56.586Z,19.23
2023-04-17T06:42:23.350Z,18.50
2023-04-17T06:44:50.301Z,19.00
2023-04-17T06:47:17.048Z,18.95
2023-04-17T06:49:43.763Z,17.27
2023-04-17T06:52:10.835Z,17.90
2023-04-17T06:54:38.371Z,15.63
2023-04-17T06:57:06.758Z,18.30
2023-04-17T06:59:34.229Z,17.15
2023-04-17T07:02:02.224Z,16.42
2023-04-17T07:04:31.478Z,16.63
2023-04-17T07:06:58.481Z,15.77
2023-04-17T07:09:26.358Z,16.80
2023-04-17T07:11:54.039Z,14.73
2023-04-17T07:14:20.803Z,16.20
2023-04-17T07:16:47.762Z,14.75
2023-04-17T07:19:14.966Z,14.82
2023-04-17T07:21:41.759Z,15.10
2023-04-17T07:24:08.608Z,15.07
2023-04-17T07:26:37.162Z,14.75
2023-04-17T07:29:03.974Z,14.02
2023-04-17T07:31:31.243Z,14.95
2023-04-17T07:33:58.059Z,12.65
2023-04-17T07:36:24.955Z,13.35
2023-04-17T07:38:51.697Z,13.82
2023-04-17T07:41:18.465Z,13.98
2023-04-17T07:43:45.275Z,12.43
2023-04-17T07:46:12.053Z,15.07
2023-04-17T07:48:39.904Z,13.57
2023-04-17T07:51:07.679Z,13.25
2023-04-17T07:53:36.147Z,12.38
2023-04-17T07:56:03.071Z,12.82
2023-04-17T07:58:29.837Z,12.98
2023-04-17T08:00:57.350Z,11.68
2023-04-17T08:03:24.618Z,12.35
2023-04-17T08:05:54.534Z,11.38
2023-04-17T08:08:22.824Z,11.45
2023-04-17T08:10:50.700Z,14.55
2023-04-17T08:13:17.446Z,12.70
2023-04-17T08:15:45.763Z,12.25
2023-04-17T08:18:12.538Z,11.85
2023-04-17T08:20:39.970Z,13.10
2023-04-17T08:23:07.172Z,12.85
2023-04-17T08:25:34.156Z,12.00
2023-04-17T08:28:01.018Z,11.10
2023-04-17T08:30:28.088Z,11.80
2023-04-17T08:32:55.651Z,11.48
2023-04-17T08:35:22.863Z,10.63
2023-04-17T08:37:49.773Z,12.95
2023-04-17T08:40:18.657Z,9.93
2023-04-17T08:42:47.847Z,10.50
2023-04-17T08:45:14.989Z,11.70
2023-04-17T08:47:43.079Z,10.32
2023-04-17T08:50:18.462Z,11.80
2023-04-17T08:52:47.848Z,10.98
2023-04-17T08:55:16.625Z,11.57
2023-04-17T08:58:03.943Z,11.13
2023-04-17T09:00:36.443Z,11.15
2023-04-17T09:03:08.588Z,10.70
2023-04-17T09:05:38.729Z,11.00
2023-04-17T09:08:25.801Z,11.88
2023-04-17T09:10:54.823Z,10.48
2023-04-17T09:13:24.992Z,10.90
2023-04-17T09:16:09.275Z,12.10
2023-04-17T09:18:37.730Z,10.70
2023-04-17T09:21:06.848Z,10.75
2023-04-17T09:23:55.358Z,11.60
2023-04-17T09:26:25.461Z,9.88
2023-04-17T09:29:04.206Z,10.73
2023-04-17T09:31:34.285Z,10.38
2023-04-17T09:34:07.526Z,10.90
2023-04-17T09:36:37.096Z,10.77
2023-04-17T09:39:05.855Z,10.43
2023-04-17T09:44:30.144Z,11.27
2023-04-17T09:46:57.563Z,11.32
2023-04-17T09:49:59.582Z,12.20
2023-04-17T09:52:26.424Z,11.77
2023-04-17T09:54:54.327Z,11.25
2023-04-17T09:57:21.346Z,11.10
2023-04-17T09:59:49.208Z,11.32
2023-04-17T10:02:21.200Z,11.93
2023-04-17T10:04:48.269Z,11.38
2023-04-17T10:07:16.324Z,11.63
2023-04-17T10:09:46.898Z,11.82
2023-04-17T10:12:20.308Z,11.77
2023-04-17T10:14:51.800Z,11.63
2023-04-17T10:17:28.602Z,11.48
2023-04-17T10:19:55.892Z,12.52
2023-04-17T10:22:24.160Z,11.10
2023-04-17T10:25:09.874Z,11.68
2023-04-17T10:27:36.630Z,11.80
2023-04-17T10:30:07.206Z,12.35
2023-04-17T10:32:34.258Z,11.57
2023-04-17T10:35:16.489Z,10.77
2023-04-17T10:37:52.254Z,11.32
2023-04-17T10:40:29.341Z,10.95
2023-04-17T10:43:25.271Z,10.82
2023-04-17T10:45:55.325Z,11.23
2023-04-17T10:48:41.689Z,11.10
2023-04-17T10:51:24.185Z,9.63
2023-04-17T10:54:10.115Z,9.63
2023-04-17T10:56:40.008Z,10.48
2023-04-17T10:59:14.947Z,9.45
2023-04-17T11:04:28.276Z,10.00
2023-04-17T11:06:56.557Z,9.85
2023-04-17T11:09:25.348Z,8.95
2023-04-17T11:11:52.341Z,9.20
2023-04-17T11:14:21.494Z,7.95
2023-04-17T11:16:50.315Z,7.93
2023-04-17T11:19:24.842Z,7.57
2023-04-17T11:22:01.258Z,7.80
2023-04-17T11:24:31.999Z,8.18
2023-04-17T11:27:01.172Z,7.32
2023-04-17T11:29:28.248Z,8.32
2023-04-17T11:32:00.908Z,7.40
2023-04-17T11:35:17.720Z,7.28
2023-04-17T11:38:11.431Z,6.60
2023-04-17T11:40:58.910Z,6.28
2023-04-17T11:43:27.418Z,6.72
2023-04-17T11:45:59.261Z,6.80
2023-04-17T11:48:30.320Z,6.47
2023-04-17T11:50:59.462Z,5.97
2023-04-17T11:53:26.671Z,6.47
2023-04-17T11:56:15.777Z,5.80
2023-04-17T11:58:54.057Z,5.03
2023-04-17T12:01:25.686Z,4.82
2023-04-17T12:03:59.593Z,4.78
2023-04-17T12:06:39.147Z,5.13
2023-04-17T12:09:07.106Z,4.38
2023-04-17T12:11:34.821Z,4.25
2023-04-17T12:14:05.037Z,3.63
2023-04-17T12:16:31.916Z,4.70
2023-04-17T12:18:58.853Z,4.85
2023-04-17T12:21:25.687Z,5.07
2023-04-17T12:23:52.578Z,4.32
2023-04-17T12:26:19.484Z,4.43
2023-04-17T12:28:46.294Z,4.18
2023-04-17T12:31:13.119Z,4.13
2023-04-17T12:33:39.903Z,4.85
2023-04-17T12:36:07.214Z,3.70
2023-04-17T12:38:34.120Z,3.80
2023-04-17T12:41:00.899Z,4.32
2023-04-17T12:43:27.773Z,3.50
2023-04-17T12:45:54.689Z,4.38
2023-04-17T12:48:21.608Z,7.45
2023-04-17T12:50:48.416Z,4.93
2023-04-17T12:53:15.745Z,6.32
2023-04-17T12:55:43.974Z,4.85
2023-04-17T12:58:12.429Z,4.15
2023-04-17T13:00:40.900Z,4.35
2023-04-17T13:03:07.914Z,4.20
2023-04-17T13:05:34.901Z,4.65
2023-04-17T13:08:01.947Z,5.10
2023-04-17T13:10:29.204Z,4.53
2023-04-17T13:12:55.991Z,4.05
2023-04-17T13:15:22.962Z,3.92
2023-04-17T13:17:49.758Z,4.25
2023-04-17T13:20:16.605Z,3.80
2023-04-17T13:22:43.386Z,4.10
2023-04-17T13:25:10.479Z,4.15
2023-04-17T13:27:37.513Z,3.70
2023-04-17T13:30:05.150Z,3.55
2023-04-17T13:32:32.079Z,3.70
2023-04-17T13:34:59.064Z,3.40
2023-04-17T13:37:26.043Z,3.40
2023-04-17T13:39:52.900Z,3.38
2023-04-17T13:42:20.322Z,3.95
2023-04-17T13:44:47.152Z,3.55
2023-04-17T13:47:14.035Z,3.70
2023-04-17T13:49:40.882Z,3.55
2023-04-17T13:52:08.345Z,3.58
2023-04-17T13:54:35.227Z,3.85
2023-04-17T13:57:02.213Z,4.00
2023-04-17T13:59:28.986Z,4.15
2023-04-17T14:01:56.111Z,21.73
2023-04-17T14:04:23.312Z,8.23
2023-04-17T14:06:51.390Z,7.60
2023-04-17T14:09:18.344Z,3.63
2023-04-17T14:11:45.293Z,4.07
2023-04-17T14:14:12.906Z,3.67
2023-04-17T14:16:43.339Z,3.88
2023-04-17T14:19:14.087Z,4.00
2023-04-17T14:21:41.950Z,3.80
2023-04-17T14:24:09.314Z,4.65
2023-04-17T14:26:37.563Z,3.90
2023-04-17T14:29:04.653Z,3.60
2023-04-17T14:31:32.082Z,3.45
2023-04-17T14:33:59.266Z,4.32
2023-04-17T14:36:26.295Z,3.78
2023-04-17T14:38:54.268Z,4.13
2023-04-17T14:41:21.262Z,4.10
2023-04-17T14:43:48.135Z,3.65
2023-04-17T14:46:15.085Z,4.00
2023-04-17T14:48:54.737Z,4.20
2023-04-17T14:51:23.850Z,4.10
2023-04-17T14:53:52.913Z,4.45
2023-04-17T14:56:21.544Z,4.63
2023-04-17T14:59:48.624Z,4.75
2023-04-17T15:02:15.485Z,4.18
2023-04-17T15:04:42.603Z,4.45
2023-04-17T15:10:37.341Z,4.55
2023-04-17T15:13:07.462Z,3.92
2023-04-17T15:15:34.308Z,3.60
2023-04-17T15:18:01.099Z,4.35
2023-04-17T15:20:28.510Z,4.50
2023-04-17T15:22:55.798Z,4.05
2023-04-17T15:25:26.312Z,4.43
2023-04-17T15:27:53.197Z,4.18
2023-04-17T15:30:20.029Z,3.97
2023-04-17T15:32:46.896Z,4.15
2023-04-17T15:35:13.779Z,4.10
2023-04-17T15:37:41.051Z,3.88
2023-04-17T15:40:08.554Z,4.50
2023-04-17T15:42:36.991Z,3.65
2023-04-17T15:45:04.428Z,3.97
2023-04-17T15:47:31.209Z,4.72
2023-04-17T15:53:15.786Z,4.30
2023-04-17T15:55:42.572Z,4.03
2023-04-17T15:58:09.354Z,4.45
2023-04-17T16:00:36.163Z,5.45
2023-04-17T16:03:03.411Z,5.80
2023-04-17T16:05:49.747Z,6.55
2023-04-17T16:08:16.615Z,4.50
2023-04-17T16:10:43.456Z,4.38
2023-04-17T16:13:10.336Z,3.70
2023-04-17T16:15:37.168Z,3.88
2023-04-17T16:18:04.550Z,3.67
2023-04-17T16:20:31.915Z,3.97
2023-04-17T16:22:58.723Z,4.22
2023-04-17T16:25:25.698Z,3.83
2023-04-17T16:27:52.460Z,4.22
2023-04-17T16:30:19.286Z,4.10
2023-04-17T16:32:48.592Z,4.25
2023-04-17T16:35:15.678Z,3.90
2023-04-17T16:40:41.618Z,4.25
2023-04-17T16:43:09.014Z,4.65
2023-04-17T16:45:39.193Z,4.63
2023-04-17T16:48:08.903Z,4.72
2023-04-17T16:50:35.834Z,6.90
2023-04-17T16:53:02.609Z,6.85
2023-04-17T16:55:29.392Z,6.82
2023-04-17T16:57:57.280Z,6.03
2023-04-17T17:00:24.140Z,5.25
2023-04-17T17:02:50.960Z,6.50
2023-04-17T17:05:17.851Z,5.38
2023-04-17T17:07:44.661Z,5.47
2023-04-17T17:12:57.624Z,5.68
2023-04-17T17:15:24.563Z,6.65
2023-04-17T17:17:51.436Z,5.28
2023-04-17T17:20:19.072Z,11.35
2023-04-17T17:22:46.031Z,5.47
2023-04-17T17:25:12.947Z,5.85
2023-04-17T17:27:39.836Z,5.47
2023-04-17T17:30:07.324Z,5.85
2023-04-17T17:32:34.157Z,5.78
2023-04-17T17:35:01.029Z,5.47
2023-04-17T17:37:28.015Z,5.53
2023-04-17T17:39:54.795Z,5.32
2023-04-17T17:42:21.568Z,6.88
2023-04-17T17:44:48.308Z,5.50
2023-04-17T17:47:15.472Z,5.30
2023-04-17T17:49:42.307Z,6.60
2023-04-17T17:55:15.302Z,6.05
2023-04-17T17:57:48.979Z,5.88
2023-04-17T18:00:17.032Z,5.88
2023-04-17T18:02:44.071Z,6.25
2023-04-17T18:05:11.009Z,5.50
2023-04-17T18:11:07.632Z,6.05
2023-04-17T18:13:34.592Z,6.30
2023-04-17T18:16:31.618Z,6.57
2023-04-17T18:21:45.435Z,7.70
2023-04-17T18:24:13.743Z,8.80
2023-04-17T18:26:40.760Z,10.93
2023-04-17T18:29:07.649Z,11.35
2023-04-17T18:31:34.716Z,11.55
2023-04-17T18:34:02.578Z,11.57
2023-04-17T18:36:29.792Z,12.23
2023-04-17T18:38:56.750Z,11.93
2023-04-17T18:41:25.495Z,13.73
2023-04-17T18:43:52.338Z,12.82
2023-04-17T18:46:19.254Z,13.63
2023-04-17T18:48:46.249Z,12.45
2023-04-17T18:51:14.700Z,11.85
2023-04-17T18:53:41.623Z,12.23
2023-04-17T18:56:10.746Z,12.98
2023-04-17T18:58:40.067Z,12.48
2023-04-17T19:01:08.124Z,11.98
2023-04-17T19:03:34.927Z,12.27
2023-04-17T19:06:01.716Z,13.10
2023-04-17T19:08:28.674Z,13.38
2023-04-17T19:10:55.695Z,11.88
2023-04-17T19:13:22.612Z,13.23
2023-04-17T19:15:49.398Z,13.52
2023-04-17T19:18:16.136Z,13.30
2023-04-17T19:20:42.958Z,13.48
2023-04-17T19:23:10.476Z,14.52
2023-04-17T19:25:42.341Z,14.65
2023-04-17T19:28:10.909Z,14.05
2023-04-17T19:30:37.839Z,14.77
2023-04-17T19:33:04.832Z,14.15
2023-04-17T19:35:32.616Z,12.50
2023-04-17T19:37:59.543Z,12.73
2023-04-17T19:40:26.369Z,14.45
2023-04-17T19:42:53.431Z,13.52
2023-04-17T19:45:20.877Z,13.27
2023-04-17T19:47:54.592Z,13.93
2023-04-17T19:50:27.176Z,15.02
2023-04-17T19:52:54.987Z,14.65
2023-04-17T19:55:21.984Z,14.57
2023-04-17T19:57:50.260Z,14.45
2023-04-17T20:00:17.728Z,14.27
2023-04-17T20:02:44.974Z,12.90
2023-04-17T20:05:11.878Z,14.30
2023-04-17T20:07:38.765Z,14.20
2023-04-17T20:10:06.197Z,13.38
2023-04-17T20:12:32.952Z,13.30
2023-04-17T20:14:59.725Z,14.73
2023-04-17T20:17:27.382Z,13.95
2023-04-17T20:19:54.115Z,15.80
2023-04-17T20:22:21.265Z,15.02
2023-04-17T20:24:50.679Z,13.75
2023-04-17T20:27:18.206Z,14.48
2023-04-17T20:29:45.068Z,14.75
2023-04-17T20:32:11.893Z,14.35
2023-04-17T20:34:38.777Z,15.35
2023-04-17T20:37:05.886Z,15.65
2023-04-17T20:39:32.759Z,14.73
2023-04-17T20:41:59.482Z,15.73
2023-04-17T20:44:26.347Z,14.35
2023-04-17T20:46:53.091Z,15.20
2023-04-17T20:49:19.890Z,14.18
2023-04-17T20:51:46.642Z,17.38
2023-04-17T20:54:13.694Z,15.98
2023-04-17T20:56:40.776Z,17.65
2023-04-17T20:59:07.520Z,16.77
2023-04-17T21:01:35.888Z,15.05
2023-04-17T21:04:03.400Z,14.90
2023-04-17T21:06:30.665Z,17.10
2023-04-17T21:08:57.866Z,16.65
2023-04-17T21:11:24.710Z,17.08
2023-04-17T21:13:51.495Z,17.17
2023-04-17T21:16:18.308Z,16.33
2023-04-17T21:18:45.776Z,16.17
2023-04-17T21:21:12.684Z,16.80
2023-04-17T21:23:39.473Z,17.35
2023-04-17T21:26:06.382Z,16.00
2023-04-17T21:28:33.369Z,17.77
2023-04-17T21:31:00.148Z,17.58
2023-04-17T21:33:26.964Z,17.52
2023-04-17T21:35:53.803Z,17.20
2023-04-17T21:38:20.653Z,17.90
2023-04-17T21:40:51.459Z,16.40
2023-04-17T21:43:18.676Z,17.85
2023-04-17T21:45:45.623Z,16.35
2023-04-17T21:48:14.221Z,16.40
2023-04-17T21:50:41.621Z,18.00
2023-04-17T21:53:08.788Z,18.13
2023-04-17T21:55:36.146Z,17.02
2023-04-17T21:58:02.981Z,17.42
2023-04-17T22:00:30.001Z,17.98
2023-04-17T22:02:56.803Z,17.63
2023-04-17T22:05:23.684Z,17.90
2023-04-17T22:07:55.015Z,16.88
2023-04-17T22:10:24.038Z,17.63
2023-04-17T22:12:51.073Z,17.05
2023-04-17T22:15:18.224Z,19.40
2023-04-17T22:17:45.208Z,17.15
2023-04-17T22:20:12.477Z,17.45
2023-04-17T22:25:41.302Z,15.93
2023-04-17T22:28:08.028Z,17.17
2023-04-17T22:30:34.951Z,16.23
2023-04-17T22:33:01.849Z,14.80
2023-04-17T22:35:28.658Z,16.75
2023-04-17T22:37:55.462Z,17.10
2023-04-17T22:40:22.204Z,17.80
2023-04-17T22:42:50.473Z,16.60
2023-04-17T22:45:17.268Z,17.38
2023-04-17T22:47:44.112Z,17.23
2023-04-17T22:50:11.697Z,17.60
2023-04-17T22:52:38.537Z,18.23
2023-04-17T22:55:06.552Z,17.55
2023-04-17T22:57:33.342Z,17.30
2023-04-17T23:00:00.220Z,16.63
2023-04-17T23:02:27.044Z,17.33
2023-04-17T23:04:53.822Z,17.75
2023-04-17T23:07:20.621Z,17.00
2023-04-17T23:09:47.636Z,18.02
2023-04-17T23:12:14.416Z,15.77
2023-04-17T23:14:41.500Z,17.65
2023-04-17T23:17:08.245Z,16.25
2023-04-17T23:19:36.151Z,16.38
2023-04-17T23:22:03.443Z,16.48
2023-04-17T23:24:34.224Z,16.38
2023-04-17T23:27:02.494Z,16.33
2023-04-17T23:29:29.618Z,16.65
2023-04-17T23:31:56.447Z,16.23
2023-04-17T23:34:23.272Z,16.15
2023-04-17T23:36:50.038Z,16.00
2023-04-17T23:39:16.773Z,16.48
2023-04-17T23:41:43.607Z,15.65
2023-04-17T23:44:10.494Z,16.77
2023-04-17T23:46:37.450Z,16.00
2023-04-17T23:49:04.970Z,14.55
2023-04-17T23:51:31.763Z,15.85
2023-04-17T23:54:00.565Z,15.82
2023-04-17T23:56:30.129Z,15.73
